createdAt,value
2023-04-02T00:01:33.289Z,7.20
2023-04-02T00:04:33.024Z,7.43
2023-04-02T00:07:37.027Z,7.10
2023-04-02T00:10:06.270Z,7.70
2023-04-02T00:12:41.035Z,9.63
2023-04-02T00:15:14.592Z,9.77
2023-04-02T00:17:50.385Z,10.77
2023-04-02T00:20:22.084Z,10.47
2023-04-02T00:22:58.345Z,11.07
2023-04-02T00:25:36.263Z,9.80
2023-04-02T00:28:06.342Z,8.93
2023-04-02T00:30:41.398Z,10.93
2023-04-02T00:33:17.372Z,11.80
2023-04-02T00:35:55.064Z,11.33
2023-04-02T00:38:27.358Z,12.50
2023-04-02T00:41:06.237Z,12.50
2023-04-02T00:43:38.396Z,12.27
2023-04-02T00:46:21.155Z,11.73
2023-04-02T00:49:02.108Z,11.67
2023-04-02T00:51:37.519Z,11.53
2023-04-02T00:54:17.126Z,12.50
2023-04-02T00:56:48.011Z,12.63
2023-04-02T00:59:33.423Z,11.60
2023-04-02T01:02:29.152Z,12.77
2023-04-02T01:05:07.356Z,12.10
2023-04-02T01:08:02.620Z,14.40
2023-04-02T01:10:55.110Z,11.67
2023-04-02T01:13:36.106Z,12.57
2023-04-02T01:16:11.855Z,11.83
2023-04-02T01:18:58.395Z,10.40
2023-04-02T01:21:42.523Z,10.40
2023-04-02T01:24:21.136Z,10.43
2023-04-02T01:26:58.821Z,9.53
2023-04-02T01:29:38.398Z,10.23
2023-04-02T01:32:10.711Z,9.20
2023-04-02T01:34:47.407Z,8.10
2023-04-02T01:37:37.137Z,9.60
2023-04-02T01:40:36.132Z,10.60
2023-04-02T01:43:21.417Z,10.00
2023-04-02T01:45:52.194Z,7.93
2023-04-02T01:48:31.460Z,9.50
2023-04-02T01:51:03.803Z,5.47
2023-04-02T01:53:40.152Z,8.77
2023-04-02T01:56:08.613Z,8.93
2023-04-02T01:58:44.459Z,9.30
2023-04-02T02:01:37.401Z,8.77
2023-04-02T02:04:13.405Z,8.43
2023-04-02T02:06:42.466Z,8.80
2023-04-02T02:09:23.213Z,8.47
2023-04-02T02:11:52.431Z,9.03
2023-04-02T02:14:30.195Z,8.33
2023-04-02T02:17:03.031Z,9.50
2023-04-02T02:19:42.192Z,9.77
2023-04-02T02:22:20.382Z,10.50
2023-04-02T02:24:59.269Z,9.93
2023-04-02T02:27:58.766Z,11.63
2023-04-02T02:30:37.444Z,12.00
2023-04-02T02:33:16.472Z,10.27
2023-04-02T02:35:57.507Z,10.63
2023-04-02T02:38:57.224Z,12.23
2023-04-02T02:41:39.206Z,10.40
2023-04-02T02:44:16.376Z,12.47
2023-04-02T02:46:54.212Z,12.13
2023-04-02T02:49:28.452Z,9.90
2023-04-02T02:52:09.234Z,10.20
2023-04-02T02:54:41.754Z,10.43
2023-04-02T02:57:21.232Z,12.43
2023-04-02T02:59:58.465Z,12.67
2023-04-02T03:02:49.589Z,11.83
2023-04-02T03:05:29.519Z,12.23
2023-04-02T03:07:59.616Z,12.23
2023-04-02T03:10:44.238Z,13.60
2023-04-02T03:13:23.360Z,13.07
2023-04-02T03:16:06.587Z,13.23
2023-04-02T03:18:41.790Z,11.03
2023-04-02T03:21:28.152Z,13.27
2023-04-02T03:24:01.097Z,12.03
2023-04-02T03:26:42.231Z,12.70
2023-04-02T03:29:16.793Z,13.37
2023-04-02T03:31:56.200Z,13.20
2023-04-02T03:34:28.412Z,12.73
2023-04-02T03:37:07.299Z,13.40
2023-04-02T03:39:41.119Z,13.43
2023-04-02T03:42:22.236Z,11.07
2023-04-02T03:44:55.811Z,11.97
2023-04-02T03:47:39.563Z,11.17
2023-04-02T03:50:13.055Z,14.30
2023-04-02T03:52:49.283Z,15.33
2023-04-02T03:55:21.764Z,15.70
2023-04-02T03:58:03.530Z,15.87
2023-04-02T04:00:38.228Z,14.07
2023-04-02T04:03:23.540Z,14.03
2023-04-02T04:05:55.009Z,12.07
2023-04-02T04:08:39.609Z,11.90
2023-04-02T04:11:14.907Z,11.13
2023-04-02T04:13:54.293Z,10.20
2023-04-02T04:16:26.848Z,11.03
2023-04-02T04:19:10.307Z,11.00
2023-04-02T04:21:38.583Z,10.67
2023-04-02T04:24:23.245Z,11.27
2023-04-02T04:26:56.111Z,10.37
2023-04-02T04:29:47.522Z,9.70
2023-04-02T04:32:34.349Z,11.00
2023-04-02T04:35:15.545Z,10.80
2023-04-02T04:37:49.565Z,10.13
2023-04-02T04:40:30.469Z,10.07
2023-04-02T04:43:03.892Z,9.70
2023-04-02T04:45:48.675Z,9.07
2023-04-02T04:48:20.781Z,6.60
2023-04-02T04:51:01.270Z,9.70
2023-04-02T04:53:31.818Z,9.20
2023-04-02T04:56:18.937Z,9.40
2023-04-02T04:58:53.844Z,9.73
2023-04-02T05:01:33.307Z,10.43
2023-04-02T05:04:14.487Z,10.03
2023-04-02T05:06:53.277Z,9.77
2023-04-02T05:09:25.971Z,9.03
2023-04-02T05:12:12.606Z,8.50
2023-04-02T05:14:47.555Z,8.40
2023-04-02T05:17:27.638Z,8.90
2023-04-02T05:20:01.344Z,8.73
2023-04-02T05:22:43.517Z,6.37
2023-04-02T05:25:21.779Z,8.50
2023-04-02T05:48:52.386Z,12.13
2023-04-02T05:51:32.331Z,9.10
2023-04-02T05:54:04.551Z,11.90
2023-04-02T05:56:43.382Z,13.03
2023-04-02T05:59:17.525Z,11.87
2023-04-02T06:02:09.708Z,12.60
2023-04-02T06:04:52.712Z,12.70
2023-04-02T06:07:31.612Z,11.57
2023-04-02T06:10:07.831Z,12.60
2023-04-02T06:12:47.338Z,11.93
2023-04-02T06:15:17.024Z,11.83
2023-04-02T06:17:55.667Z,12.57
2023-04-02T06:20:24.241Z,10.67
2023-04-02T06:23:03.426Z,12.90
2023-04-02T06:25:43.674Z,13.07
2023-04-02T06:28:17.704Z,10.00
2023-04-02T06:30:53.659Z,11.97
2023-04-02T06:33:23.743Z,11.47
2023-04-02T06:36:00.398Z,11.07
2023-04-02T06:38:32.710Z,10.07
2023-04-02T06:41:12.634Z,10.87
2023-04-02T06:43:52.354Z,10.20
2023-04-02T06:46:27.129Z,10.77
2023-04-02T06:49:11.361Z,10.07
2023-04-02T06:51:41.837Z,10.60
2023-04-02T06:54:22.693Z,10.90
2023-04-02T06:56:52.856Z,9.93
2023-04-02T06:59:28.692Z,10.40
2023-04-02T07:02:19.456Z,10.20
2023-04-02T07:04:56.435Z,11.57
2023-04-02T07:07:25.280Z,11.10
2023-04-02T07:10:00.552Z,9.83
2023-04-02T07:12:29.073Z,11.13
2023-04-02T07:14:57.800Z,11.57
2023-04-02T07:17:32.485Z,11.07
2023-04-02T07:20:03.095Z,9.67
2023-04-02T07:22:31.742Z,9.07
2023-04-02T07:25:06.641Z,8.93
2023-04-02T07:27:35.177Z,9.70
2023-04-02T07:30:10.762Z,8.77
2023-04-02T07:32:45.745Z,9.20
2023-04-02T07:35:16.111Z,8.17
2023-04-02T07:37:51.698Z,8.63
2023-04-02T07:40:29.387Z,9.43
2023-04-02T07:42:57.538Z,11.00
2023-04-02T07:45:32.455Z,9.23
2023-04-02T07:48:13.493Z,9.67
2023-04-02T07:50:43.414Z,10.43
2023-04-02T07:53:36.788Z,9.43
2023-04-02T07:56:13.493Z,12.00
2023-04-02T07:58:41.979Z,10.97
2023-04-02T08:01:25.497Z,9.70
2023-04-02T08:04:01.015Z,7.23
2023-04-02T08:06:38.721Z,8.27
2023-04-02T08:09:07.669Z,7.80
2023-04-02T08:11:36.149Z,8.83
2023-04-02T08:14:11.417Z,9.17
2023-04-02T08:16:49.096Z,9.43
2023-04-02T08:19:24.489Z,9.03
2023-04-02T08:22:01.727Z,9.27
2023-04-02T08:24:30.476Z,8.67
2023-04-02T08:27:05.565Z,9.20
2023-04-02T08:29:34.026Z,9.57
2023-04-02T08:32:03.624Z,10.33
2023-04-02T08:34:38.477Z,10.07
2023-04-02T08:37:08.758Z,9.33
2023-04-02T08:39:43.474Z,8.70
2023-04-02T08:42:24.494Z,9.10
2023-04-02T08:45:24.241Z,9.23
2023-04-02T08:48:04.546Z,9.53
2023-04-02T08:50:35.271Z,8.77
2023-04-02T08:53:14.830Z,10.20
2023-04-02T08:55:48.231Z,9.97
2023-04-02T08:58:35.503Z,9.77
2023-04-02T09:01:13.801Z,8.70
2023-04-02T09:03:51.227Z,8.50
2023-04-02T09:06:34.838Z,9.83
2023-04-02T09:09:05.163Z,9.73
2023-04-02T09:11:48.444Z,7.70
2023-04-02T09:14:20.954Z,7.43
2023-04-02T09:16:59.566Z,6.40
2023-04-02T09:19:35.281Z,6.93
2023-04-02T09:22:15.631Z,6.83
2023-04-02T09:24:45.771Z,6.37
2023-04-02T09:27:27.778Z,6.87
2023-04-02T09:30:02.561Z,7.43
2023-04-02T09:32:53.590Z,6.97
2023-04-02T09:35:31.509Z,6.30
2023-04-02T09:38:19.757Z,7.37
2023-04-02T09:40:58.595Z,7.47
2023-04-02T09:43:28.422Z,9.40
2023-04-02T09:46:06.520Z,8.03
2023-04-02T09:48:37.926Z,6.70
2023-04-02T09:51:16.735Z,8.30
2023-04-02T09:53:48.183Z,6.90
2023-04-02T09:56:28.914Z,5.23
2023-04-02T09:59:06.029Z,6.27
2023-04-02T10:01:43.764Z,9.67
2023-04-02T10:04:44.828Z,7.33
2023-04-02T10:07:42.668Z,7.87
2023-04-02T10:10:29.889Z,6.70
2023-04-02T10:13:04.615Z,8.23
2023-04-02T10:15:45.622Z,7.17
2023-04-02T10:18:21.652Z,7.10
2023-04-02T10:21:00.615Z,5.77
2023-04-02T10:23:32.043Z,7.17
2023-04-02T10:26:21.629Z,6.37
2023-04-02T10:29:12.942Z,5.87
2023-04-02T10:31:53.221Z,6.90
2023-04-02T10:34:33.716Z,5.70
2023-04-02T10:37:12.684Z,4.87
2023-04-02T10:39:52.582Z,5.27
2023-04-02T10:42:27.631Z,6.43
2023-04-02T10:45:11.913Z,4.33
2023-04-02T10:47:50.140Z,4.83
2023-04-02T10:50:39.972Z,5.73
2023-04-02T10:53:13.708Z,4.30
2023-04-02T10:55:52.950Z,5.53
2023-04-02T10:58:26.083Z,3.73
2023-04-02T11:01:07.643Z,3.13
2023-04-02T11:03:47.184Z,2.90
2023-04-02T11:06:27.588Z,3.00
2023-04-02T11:09:00.413Z,3.37
2023-04-02T11:11:39.906Z,4.03
2023-04-02T11:14:14.858Z,4.40
2023-04-02T11:16:51.943Z,5.70
2023-04-02T11:19:27.130Z,3.30
2023-04-02T11:22:06.725Z,4.03
2023-04-02T11:24:50.637Z,3.43
2023-04-02T11:27:24.149Z,3.50
2023-04-02T11:30:03.578Z,4.17
2023-04-02T11:32:52.985Z,4.17
2023-04-02T11:35:47.687Z,3.80
2023-04-02T11:38:56.111Z,4.20
2023-04-02T11:42:13.636Z,3.30
2023-04-02T11:44:42.441Z,8.73
2023-04-02T11:47:28.972Z,4.03
2023-04-02T11:50:30.006Z,4.23
2023-04-02T11:53:11.779Z,4.20
2023-04-02T11:55:41.514Z,3.83
2023-04-02T11:58:42.697Z,4.97
2023-04-02T12:01:59.777Z,3.97
2023-04-02T12:05:00.650Z,4.07
2023-04-02T12:08:00.913Z,4.87
2023-04-02T12:10:34.537Z,5.37
2023-04-02T12:13:09.688Z,3.07
2023-04-02T12:15:46.295Z,4.53
2023-04-02T12:18:24.011Z,3.63
2023-04-02T12:20:55.952Z,4.50
2023-04-02T12:23:37.717Z,4.50
2023-04-02T12:26:08.827Z,4.70
2023-04-02T12:28:44.724Z,3.17
2023-04-02T12:31:25.002Z,3.57
2023-04-02T12:33:54.458Z,3.33
2023-04-02T12:36:31.748Z,2.93
2023-04-02T12:39:07.686Z,4.40
2023-04-02T12:41:38.837Z,4.13
2023-04-02T12:44:17.715Z,3.77
2023-04-02T12:46:47.966Z,3.70
2023-04-02T12:49:36.706Z,4.07
2023-04-02T12:52:07.786Z,3.00
2023-04-02T12:54:52.009Z,3.23
2023-04-02T12:57:39.057Z,4.13
2023-04-02T13:00:40.650Z,3.00
2023-04-02T13:03:35.723Z,3.67
2023-04-02T13:06:05.116Z,4.27
2023-04-02T13:08:50.813Z,3.37
2023-04-02T13:11:28.750Z,5.10
2023-04-02T13:14:04.192Z,3.67
2023-04-02T13:16:43.749Z,3.47
2023-04-02T13:19:39.058Z,2.77
2023-04-02T13:22:32.227Z,3.63
2023-04-02T13:25:07.728Z,4.20
2023-04-02T13:27:37.832Z,5.27
2023-04-02T13:30:17.017Z,4.50
2023-04-02T13:32:46.196Z,2.90
2023-04-02T13:35:21.175Z,3.70
2023-04-02T13:37:50.757Z,3.23
2023-04-02T13:40:20.250Z,5.17
2023-04-02T13:42:58.017Z,4.00
2023-04-02T13:45:29.054Z,3.03
2023-04-02T13:48:07.812Z,3.20
2023-04-02T13:50:37.587Z,3.07
2023-04-02T13:53:14.947Z,3.47
2023-04-02T13:55:44.800Z,4.57
2023-04-02T13:58:20.725Z,4.00
2023-04-02T14:00:55.903Z,3.47
2023-04-02T14:03:44.053Z,4.10
2023-04-02T14:06:25.787Z,2.37
2023-04-02T14:09:07.129Z,2.50
2023-04-02T14:11:46.825Z,7.00
2023-04-02T14:14:37.813Z,2.20
2023-04-02T14:17:18.841Z,3.53
2023-04-02T14:20:18.825Z,4.90
2023-04-02T14:23:02.945Z,2.73
2023-04-02T14:25:45.745Z,3.23
2023-04-02T14:28:23.994Z,3.77
2023-04-02T14:31:06.811Z,3.30
2023-04-02T14:33:44.030Z,3.03
2023-04-02T14:36:25.787Z,2.67
2023-04-02T14:39:00.778Z,3.03
2023-04-02T14:41:44.242Z,3.23
2023-04-02T14:44:14.471Z,3.87
2023-04-02T14:46:51.127Z,4.07
2023-04-02T14:49:26.756Z,4.23
2023-04-02T14:52:07.829Z,2.80
2023-04-02T14:54:40.628Z,3.30
2023-04-02T14:57:27.931Z,3.77
2023-04-02T15:00:10.800Z,5.93
2023-04-02T15:02:57.993Z,3.33
2023-04-02T15:05:40.415Z,2.40
2023-04-02T15:08:21.869Z,3.07
2023-04-02T15:11:03.466Z,2.13
2023-04-02T15:13:44.854Z,3.20
2023-04-02T15:16:19.202Z,2.47
2023-04-02T15:18:58.825Z,2.83
2023-04-02T15:21:57.109Z,3.10
2023-04-02T15:24:40.814Z,3.43
2023-04-02T15:27:25.058Z,3.70
2023-04-02T15:30:08.829Z,3.73
2023-04-02T15:32:39.542Z,3.27
2023-04-02T15:35:29.930Z,2.37
2023-04-02T15:38:03.239Z,2.30
2023-04-02T15:40:57.111Z,3.87
2023-04-02T15:43:31.184Z,2.70
2023-04-02T15:46:16.952Z,3.63
2023-04-02T15:49:07.268Z,2.33
2023-04-02T15:51:58.224Z,1.93
2023-04-02T15:54:38.726Z,3.27
2023-04-02T15:57:26.992Z,2.93
2023-04-02T16:00:29.011Z,2.20
2023-04-02T16:03:42.929Z,2.53
2023-04-02T16:06:39.208Z,3.00
2023-04-02T16:09:23.304Z,2.00
2023-04-02T16:12:04.859Z,3.70
2023-04-02T16:14:34.520Z,1.87
2023-04-02T16:17:24.275Z,3.37
2023-04-02T16:19:58.029Z,3.10
2023-04-02T16:22:35.916Z,2.40
2023-04-02T16:25:23.246Z,2.20
2023-04-02T16:27:59.238Z,2.20
2023-04-02T16:30:52.287Z,1.70
2023-04-02T16:33:48.679Z,1.90
2023-04-02T16:36:34.956Z,2.27
2023-04-02T16:39:10.404Z,2.60
2023-04-02T16:41:58.931Z,1.67
2023-04-02T16:44:37.645Z,1.40
2023-04-02T16:47:25.982Z,1.60
2023-04-02T16:50:02.046Z,2.97
2023-04-02T16:52:49.217Z,2.37
2023-04-02T16:55:27.354Z,1.73
2023-04-02T16:58:15.204Z,1.63
2023-04-02T17:00:48.872Z,3.60
2023-04-02T17:03:44.998Z,2.53
2023-04-02T17:06:24.113Z,2.07
2023-04-02T17:09:06.901Z,2.53
2023-04-02T17:11:41.710Z,3.00
2023-04-02T17:14:30.973Z,2.40
2023-04-02T17:17:09.981Z,2.97
2023-04-02T17:19:38.772Z,3.17
2023-04-02T17:22:13.928Z,2.30
2023-04-02T17:24:45.841Z,2.20
2023-04-02T17:27:28.925Z,3.33
2023-04-02T17:30:05.304Z,3.67
2023-04-02T17:32:43.085Z,2.83
2023-04-02T17:35:19.760Z,2.13
2023-04-02T17:38:01.939Z,2.07
2023-04-02T17:40:37.182Z,3.00
2023-04-02T17:43:20.902Z,2.23
2023-04-02T17:45:57.305Z,3.40
2023-04-02T17:48:39.956Z,3.50
2023-04-02T17:51:18.581Z,2.47
2023-04-02T17:54:04.946Z,3.10
2023-04-02T17:56:52.427Z,3.23
2023-04-02T17:59:58.977Z,3.37
2023-04-02T18:03:17.823Z,2.73
2023-04-02T18:05:57.014Z,4.60
2023-04-02T18:08:34.599Z,2.67
2023-04-02T18:11:18.048Z,2.20
2023-04-02T18:13:55.250Z,3.83
2023-04-02T18:16:40.986Z,3.27
2023-04-02T18:19:18.189Z,3.30
2023-04-02T18:22:02.467Z,3.30
2023-04-02T18:24:51.612Z,3.63
2023-04-02T18:27:49.072Z,5.00
2023-04-02T18:30:22.795Z,3.43
2023-04-02T18:33:20.381Z,4.53
2023-04-02T18:36:07.126Z,3.53
2023-04-02T18:38:44.599Z,3.57
2023-04-02T18:41:36.032Z,4.97
2023-04-02T18:44:16.672Z,4.37
2023-04-02T18:46:57.010Z,3.47
2023-04-02T18:49:30.135Z,3.47
2023-04-02T18:52:10.017Z,3.33
2023-04-02T18:54:43.194Z,4.63
2023-04-02T18:57:21.071Z,5.03
2023-04-02T18:59:55.503Z,4.17
2023-04-02T19:02:42.093Z,2.97
2023-04-02T19:05:24.624Z,4.87
2023-04-02T19:08:08.048Z,4.80
2023-04-02T19:10:40.093Z,4.47
2023-04-02T19:13:21.147Z,3.33
2023-04-02T19:16:37.638Z,3.80
2023-04-02T19:19:20.311Z,5.10
2023-04-02T19:22:11.392Z,4.67
2023-04-02T19:24:55.742Z,4.03
2023-04-02T19:27:36.112Z,4.67
2023-04-02T19:30:19.485Z,4.27
2023-04-02T19:33:04.128Z,3.93
2023-04-02T19:35:40.478Z,4.27
2023-04-02T19:38:30.356Z,4.00
2023-04-02T19:41:09.114Z,5.47
2023-04-02T19:43:44.047Z,4.13
2023-04-02T19:46:13.166Z,5.37
2023-04-02T19:48:56.178Z,5.23
2023-04-02T19:51:24.849Z,6.07
2023-04-02T19:54:00.105Z,5.17
2023-04-02T19:56:36.985Z,5.30
2023-04-02T19:59:16.981Z,5.60
2023-04-02T20:01:54.060Z,5.20
2023-04-02T20:04:29.368Z,5.87
2023-04-02T20:07:04.574Z,5.90
2023-04-02T20:09:39.386Z,5.57
2023-04-02T20:12:09.707Z,5.90
2023-04-02T20:14:38.132Z,4.97
2023-04-02T20:17:13.419Z,5.73
2023-04-02T20:19:41.626Z,6.13
2023-04-02T20:22:10.381Z,5.23
2023-04-02T20:24:45.150Z,6.50
2023-04-02T20:27:15.198Z,4.67
2023-04-02T20:29:50.126Z,5.17
2023-04-02T20:32:25.219Z,4.30
2023-04-02T20:34:54.274Z,3.63
2023-04-02T20:37:29.203Z,5.67
2023-04-02T20:39:58.237Z,3.20
2023-04-02T20:42:28.678Z,3.70
2023-04-02T20:45:04.112Z,4.67
2023-04-02T20:47:32.750Z,4.17
2023-04-02T20:50:08.179Z,3.83
2023-04-02T20:52:37.151Z,4.63
2023-04-02T20:55:13.182Z,4.50
2023-04-02T20:57:49.118Z,3.57
2023-04-02T21:00:18.146Z,3.77
2023-04-02T21:02:53.436Z,3.83
2023-04-02T21:05:49.220Z,3.87
2023-04-02T21:08:17.945Z,3.70
2023-04-02T21:10:53.197Z,3.90
2023-04-02T21:13:29.501Z,5.43
2023-04-02T21:15:58.023Z,3.70
2023-04-02T21:18:33.430Z,5.33
2023-04-02T21:21:03.375Z,3.93
2023-04-02T21:23:32.887Z,7.20
2023-04-02T21:26:11.189Z,4.07
2023-04-02T21:28:41.073Z,5.40
2023-04-02T21:31:18.467Z,4.67
2023-04-02T21:33:55.477Z,6.30
2023-04-02T21:36:26.019Z,5.87
2023-04-02T21:39:02.436Z,3.30
2023-04-02T21:41:32.595Z,4.10
2023-04-02T21:44:11.215Z,5.53
2023-04-02T21:46:51.665Z,3.73
2023-04-02T21:49:23.316Z,2.97
2023-04-02T21:51:59.435Z,4.00
2023-04-02T21:54:34.267Z,2.90
2023-04-02T21:57:02.818Z,5.30
2023-04-02T21:59:39.437Z,7.00
2023-04-02T22:02:14.265Z,5.00
2023-04-02T22:05:02.221Z,5.17
2023-04-02T22:07:37.157Z,3.83
2023-04-02T22:10:13.161Z,3.40
2023-04-02T22:12:42.243Z,4.63
2023-04-02T22:15:20.185Z,3.27
2023-04-02T22:17:48.706Z,3.40
2023-04-02T22:20:17.735Z,4.33
2023-04-02T22:22:53.218Z,3.43
2023-04-02T22:25:21.808Z,4.77
2023-04-02T22:27:52.059Z,3.90
2023-04-02T22:30:28.207Z,4.13
2023-04-02T22:32:56.848Z,3.10
2023-04-02T22:35:25.320Z,5.30
2023-04-02T22:38:00.255Z,4.53
2023-04-02T22:40:30.038Z,4.23
2023-04-02T22:42:58.742Z,5.43
2023-04-02T22:45:35.521Z,4.27
2023-04-02T22:48:04.169Z,4.00
2023-04-02T22:50:39.203Z,3.80
2023-04-02T22:53:14.221Z,4.53
2023-04-02T22:55:42.813Z,3.43
2023-04-02T22:58:18.238Z,4.83
2023-04-02T23:00:55.225Z,4.37
2023-04-02T23:03:43.175Z,3.70
2023-04-02T23:06:20.263Z,3.70
2023-04-02T23:08:55.206Z,3.73
2023-04-02T23:11:25.986Z,3.60
2023-04-02T23:14:03.226Z,4.13
2023-04-02T23:16:39.392Z,4.23
2023-04-02T23:19:07.935Z,3.37
2023-04-02T23:21:43.418Z,3.53
2023-04-02T23:24:13.329Z,4.77
2023-04-02T23:26:41.727Z,4.57
2023-04-02T23:29:18.540Z,3.83
2023-04-02T23:31:48.614Z,4.60
2023-04-02T23:34:23.357Z,4.40
2023-04-02T23:36:58.605Z,4.00
2023-04-02T23:39:27.377Z,3.70
2023-04-02T23:42:02.606Z,5.07
2023-04-02T23:44:31.012Z,3.97
2023-04-02T23:47:08.261Z,4.03
2023-04-02T23:49:43.234Z,3.93
2023-04-02T23:52:11.773Z,5.03
2023-04-02T23:54:46.316Z,4.77
2023-04-02T23:57:22.271Z,3.60
2023-04-02T23:59:51.055Z,3.37
